createdAt,value
2023-02-06T00:01:45.619Z,99599.81
2023-02-06T00:04:14.738Z,99593.84
2023-02-06T00:06:44.705Z,99593.97
2023-02-06T00:09:12.985Z,99592.22
2023-02-06T00:11:41.282Z,99586.22
2023-02-06T00:14:09.539Z,99596.75
2023-02-06T00:16:37.921Z,99603.75
2023-02-06T00:19:06.433Z,99595.16
2023-02-06T00:21:34.782Z,99596.91
2023-02-06T00:24:05.196Z,99594.38
2023-02-06T00:26:33.572Z,99601.41
2023-02-06T00:29:01.778Z,99591.88
2023-02-06T00:31:30.561Z,99589.34
2023-02-06T00:33:58.925Z,99594.59
2023-02-06T00:36:27.302Z,99598.09
2023-02-06T00:38:55.580Z,99598.13
2023-02-06T00:41:25.213Z,99604.25
2023-02-06T00:43:53.463Z,99608.59
2023-02-06T00:46:22.003Z,99607.78
2023-02-06T00:48:50.255Z,99610.44
2023-02-06T00:51:18.468Z,99628.69
2023-02-06T00:53:46.722Z,99622.66
2023-02-06T00:56:14.945Z,99606.25
2023-02-06T00:58:44.623Z,99616.72
2023-02-06T01:01:12.900Z,99619.34
2023-02-06T01:03:41.743Z,99601.22
2023-02-06T01:06:10.140Z,99609.03
2023-02-06T01:08:38.387Z,99609.97
2023-02-06T01:11:12.169Z,99614.38
2023-02-06T01:13:40.654Z,99613.53
2023-02-06T01:16:11.412Z,99599.69
2023-02-06T01:18:40.177Z,99601.56
2023-02-06T01:21:10.626Z,99596.31
2023-02-06T01:23:40.450Z,99608.53
2023-02-06T01:26:10.703Z,99612.06
2023-02-06T01:28:39.978Z,99613.88
2023-02-06T01:31:13.895Z,99613.06
2023-02-06T01:33:42.455Z,99618.31
2023-02-06T01:36:11.420Z,99622.69
2023-02-06T01:38:40.519Z,99623.59
2023-02-06T01:41:09.665Z,99614.94
2023-02-06T01:43:41.222Z,99618.44
2023-02-06T01:46:10.840Z,99621.94
2023-02-06T01:48:44.819Z,99621.13
2023-02-06T01:51:18.829Z,99616.81
2023-02-06T01:53:51.849Z,99609.94
2023-02-06T01:56:21.809Z,99610.03
2023-02-06T01:58:55.192Z,99618.78
2023-02-06T02:01:24.685Z,99612.78
2023-02-06T02:03:59.462Z,99615.44
2023-02-06T02:06:28.827Z,99616.38
2023-02-06T02:08:58.677Z,99618.97
2023-02-06T02:11:32.409Z,99613.75
2023-02-06T02:14:02.094Z,99621.56
2023-02-06T02:16:43.671Z,99612.06
2023-02-06T02:19:49.007Z,99610.34
2023-02-06T02:22:57.135Z,99598.28
2023-02-06T02:25:53.373Z,99598.34
2023-02-06T02:29:18.650Z,99595.88
2023-02-06T02:32:35.363Z,99596.84
2023-02-06T02:35:14.710Z,99597.72
2023-02-06T02:37:56.568Z,99600.34
2023-02-06T02:40:36.345Z,99593.47
2023-02-06T02:43:16.910Z,99598.66
2023-02-06T02:45:50.478Z,99608.22
2023-02-06T02:48:26.506Z,99596.94
2023-02-06T02:50:57.750Z,99592.59
2023-02-06T02:53:26.981Z,99598.72
2023-02-06T02:55:55.612Z,99604.81
2023-02-06T02:58:28.810Z,99603.06
2023-02-06T03:01:01.167Z,99617.00
2023-02-06T03:03:32.808Z,99617.88
2023-02-06T03:06:32.456Z,99615.34
2023-02-06T03:09:09.067Z,99630.06
2023-02-06T03:11:43.696Z,99629.28
2023-02-06T03:14:18.295Z,99634.53
2023-02-06T03:16:51.988Z,99621.53
2023-02-06T03:19:25.662Z,99627.63
2023-02-06T03:21:55.289Z,99634.59
2023-02-06T03:24:27.477Z,99639.84
2023-02-06T03:27:00.692Z,99642.50
2023-02-06T03:29:31.312Z,99653.72
2023-02-06T03:32:05.466Z,99653.75
2023-02-06T03:34:41.754Z,99646.00
2023-02-06T03:37:11.769Z,99647.78
2023-02-06T03:39:40.570Z,99646.06
2023-02-06T03:42:13.022Z,99644.41
2023-02-06T03:44:45.345Z,99643.59
2023-02-06T03:47:17.561Z,99630.63
2023-02-06T03:49:48.461Z,99627.22
2023-02-06T03:52:22.627Z,99623.78
2023-02-06T03:54:56.540Z,99622.06
2023-02-06T03:57:26.361Z,99620.38
2023-02-06T03:59:54.672Z,99632.56
2023-02-06T04:02:25.843Z,99632.56
2023-02-06T04:04:54.521Z,99619.56
2023-02-06T04:07:28.433Z,99614.38
2023-02-06T04:09:56.951Z,99606.56
2023-02-06T04:12:25.860Z,99603.09
2023-02-06T04:14:54.471Z,99601.38
2023-02-06T04:17:40.730Z,99599.59
2023-02-06T04:20:12.556Z,99602.22
2023-02-06T04:22:42.879Z,99599.63
2023-02-06T04:25:11.107Z,99578.81
2023-02-06T04:27:39.482Z,99584.88
2023-02-06T04:30:09.730Z,99583.13
2023-02-06T04:32:38.036Z,99582.25
2023-02-06T04:35:07.062Z,99577.94
2023-02-06T04:37:35.360Z,99597.84
2023-02-06T04:40:05.509Z,99591.78
2023-02-06T04:42:33.836Z,99587.47
2023-02-06T04:45:02.174Z,99584.03
2023-02-06T04:47:30.364Z,99592.69
2023-02-06T04:49:58.634Z,99587.50
2023-02-06T04:52:26.900Z,99591.00
2023-02-06T04:54:55.185Z,99585.84
2023-02-06T04:57:25.498Z,99585.84
2023-02-06T04:59:53.812Z,99581.53
2023-02-06T05:02:22.112Z,99581.59
2023-02-06T05:04:50.375Z,99585.03
2023-02-06T05:07:18.634Z,99581.59
2023-02-06T05:09:47.235Z,99582.50
2023-02-06T05:12:15.541Z,99571.25
2023-02-06T05:14:45.186Z,99562.63
2023-02-06T05:17:13.444Z,99566.09
2023-02-06T05:19:41.698Z,99568.72
2023-02-06T05:22:10.142Z,99563.53
2023-02-06T05:24:38.412Z,99562.69
2023-02-06T05:27:06.649Z,99567.06
2023-02-06T05:29:34.856Z,99563.63
2023-02-06T05:32:04.583Z,99559.31
2023-02-06T05:34:32.856Z,99560.19
2023-02-06T05:37:01.155Z,99558.50
2023-02-06T05:39:29.828Z,99570.66
2023-02-06T05:41:58.107Z,99584.53
2023-02-06T05:44:26.404Z,99587.19
2023-02-06T05:46:54.979Z,99583.75
2023-02-06T05:49:24.618Z,99586.34
2023-02-06T05:51:52.964Z,99585.47
2023-02-06T05:54:21.242Z,99584.66
2023-02-06T05:56:49.529Z,99584.66
2023-02-06T05:59:17.769Z,99580.34
2023-02-06T06:01:46.250Z,99575.19
2023-02-06T06:04:14.572Z,99579.53
2023-02-06T06:06:44.204Z,99573.50
2023-02-06T06:09:12.714Z,99577.81
2023-02-06T06:11:40.990Z,99588.19
2023-02-06T06:14:09.672Z,99592.56
2023-02-06T06:16:37.879Z,99590.81
2023-02-06T06:19:06.123Z,99590.00
2023-02-06T06:21:34.958Z,99590.06
2023-02-06T06:24:05.143Z,99590.06
2023-02-06T06:26:33.652Z,99590.91
2023-02-06T06:29:01.918Z,99584.88
2023-02-06T06:31:30.314Z,99593.53
2023-02-06T06:33:58.587Z,99585.81
2023-02-06T06:36:26.820Z,99584.94
2023-02-06T06:38:55.164Z,99592.75
2023-02-06T06:41:24.776Z,99591.88
2023-02-06T06:43:56.067Z,99587.59
2023-02-06T06:46:24.379Z,99594.53
2023-02-06T06:48:52.804Z,99595.41
2023-02-06T06:51:21.205Z,99608.44
2023-02-06T06:53:49.475Z,99600.66
2023-02-06T06:56:17.758Z,99593.81
2023-02-06T06:58:47.415Z,99597.19
2023-02-06T07:01:15.836Z,99601.56
2023-02-06T07:03:45.400Z,99588.56
2023-02-06T07:06:14.144Z,99586.78
2023-02-06T07:08:43.503Z,99571.22
2023-02-06T07:11:14.551Z,99575.53
2023-02-06T07:13:43.465Z,99579.84
2023-02-06T07:16:14.265Z,99587.63
2023-02-06T07:18:43.042Z,99589.31
2023-02-06T07:21:13.772Z,99584.09
2023-02-06T07:23:42.050Z,99588.41
2023-02-06T07:26:10.328Z,99584.00
2023-02-06T07:28:38.948Z,99583.91
2023-02-06T07:31:09.098Z,99603.78
2023-02-06T07:33:38.752Z,99599.38
2023-02-06T07:36:11.318Z,99602.78
2023-02-06T07:38:39.644Z,99607.06
2023-02-06T07:41:08.521Z,99611.31
2023-02-06T07:43:36.846Z,99616.44
2023-02-06T07:46:06.672Z,99611.16
2023-02-06T07:48:34.969Z,99616.25
2023-02-06T07:51:09.340Z,99613.63
2023-02-06T07:53:38.664Z,99610.00
2023-02-06T07:56:13.225Z,99603.03
2023-02-06T07:58:41.900Z,99613.34
2023-02-06T08:01:10.744Z,99622.84
2023-02-06T08:03:39.311Z,99629.72
2023-02-06T08:06:14.680Z,99624.47
2023-02-06T08:08:44.177Z,99621.81
2023-02-06T08:11:15.624Z,99619.97
2023-02-06T08:13:44.678Z,99619.94
2023-02-06T08:16:16.251Z,99605.09
2023-02-06T08:18:44.781Z,99604.13
2023-02-06T08:21:17.024Z,99598.75
2023-02-06T08:23:45.565Z,99598.69
2023-02-06T08:26:16.914Z,99601.97
2023-02-06T08:28:47.883Z,99592.25
2023-02-06T08:31:19.379Z,99598.13
2023-02-06T08:33:48.444Z,99589.28
2023-02-06T08:36:20.090Z,99584.78
2023-02-06T08:38:48.984Z,99582.81
2023-02-06T08:41:20.493Z,99584.38
2023-02-06T08:43:49.953Z,99580.63
2023-02-06T08:46:20.188Z,99584.63
2023-02-06T08:48:48.569Z,99591.22
2023-02-06T08:51:18.211Z,99586.47
2023-02-06T08:53:46.459Z,99589.53
2023-02-06T08:56:15.272Z,99580.50
2023-02-06T08:58:43.522Z,99584.50
2023-02-06T09:01:14.642Z,99571.03
2023-02-06T09:03:43.626Z,99578.47
2023-02-06T09:06:12.858Z,99578.03
2023-02-06T09:08:43.499Z,99569.72
2023-02-06T09:11:13.692Z,99573.69
2023-02-06T09:13:42.200Z,99577.59
2023-02-06T09:16:11.648Z,99572.84
2023-02-06T09:18:40.279Z,99573.28
2023-02-06T09:21:11.570Z,99578.88
2023-02-06T09:23:40.285Z,99580.19
2023-02-06T09:26:10.091Z,99569.22
2023-02-06T09:28:38.429Z,99574.75
2023-02-06T09:31:08.204Z,99565.34
2023-02-06T09:33:38.143Z,99558.81
2023-02-06T09:36:09.322Z,99562.69
2023-02-06T09:38:40.467Z,99556.84
2023-02-06T09:41:18.550Z,99558.91
2023-02-06T09:43:52.373Z,99569.69
2023-02-06T09:46:27.421Z,99563.97
2023-02-06T09:48:57.538Z,99563.44
2023-02-06T09:51:35.992Z,99554.13
2023-02-06T09:54:15.375Z,99551.84
2023-02-06T09:56:52.030Z,99555.50
2023-02-06T09:59:30.835Z,99551.19
2023-02-06T10:02:30.499Z,99553.75
2023-02-06T10:05:10.482Z,99548.53
2023-02-06T10:08:06.732Z,99536.75
2023-02-06T10:10:40.860Z,99531.72
2023-02-06T10:13:17.644Z,99525.19
2023-02-06T10:15:50.228Z,99524.94
2023-02-06T10:18:29.034Z,99518.63
2023-02-06T10:21:05.975Z,99515.00
2023-02-06T10:23:40.281Z,99506.31
2023-02-06T10:26:17.240Z,99500.22
2023-02-06T10:28:51.337Z,99487.22
2023-02-06T10:31:47.604Z,99492.69
2023-02-06T10:35:08.183Z,99487.69
2023-02-06T10:38:04.947Z,99489.81
2023-02-06T10:40:43.808Z,99479.56
2023-02-06T10:43:25.295Z,99477.19
2023-02-06T10:46:07.122Z,99461.69
2023-02-06T10:48:42.328Z,99463.78
2023-02-06T10:51:21.293Z,99468.34
2023-02-06T10:53:52.501Z,99467.75
2023-02-06T10:56:27.314Z,99464.63
2023-02-06T10:59:00.300Z,99467.38
2023-02-06T11:01:35.925Z,99464.03
2023-02-06T11:04:12.787Z,99458.91
2023-02-06T11:06:43.131Z,99453.84
2023-02-06T11:09:11.878Z,99452.22
2023-02-06T11:11:43.530Z,99444.53
2023-02-06T11:14:18.139Z,99436.06
2023-02-06T11:16:48.351Z,99433.56
2023-02-06T11:19:25.644Z,99417.31
2023-02-06T11:21:57.298Z,99420.00
2023-02-06T11:24:26.421Z,99424.56
2023-02-06T11:26:58.678Z,99430.69
2023-02-06T11:29:29.353Z,99424.56
2023-02-06T11:32:01.841Z,99418.44
2023-02-06T11:34:33.625Z,99410.56
2023-02-06T11:37:04.567Z,99412.31
2023-02-06T11:39:35.503Z,99415.88
2023-02-06T11:42:07.442Z,99407.13
2023-02-06T11:44:42.647Z,99407.13
2023-02-06T11:47:31.431Z,99402.75
2023-02-06T11:50:24.580Z,99404.38
2023-02-06T11:53:00.655Z,99408.63
2023-02-06T11:55:32.080Z,99403.38
2023-02-06T11:58:18.434Z,99397.06
2023-02-06T12:01:00.819Z,99403.25
2023-02-06T12:03:35.691Z,99406.69
2023-02-06T12:06:12.367Z,99424.13
2023-02-06T12:08:53.109Z,99417.09
2023-02-06T12:11:27.309Z,99414.47
2023-02-06T12:14:00.995Z,99406.53
2023-02-06T12:16:30.800Z,99401.38
2023-02-06T12:19:02.204Z,99401.22
2023-02-06T12:21:46.225Z,99397.88
2023-02-06T12:24:35.103Z,99390.94
2023-02-06T12:27:15.978Z,99396.25
2023-02-06T12:29:54.633Z,99388.44
2023-02-06T12:32:31.738Z,99371.00
2023-02-06T12:35:14.901Z,99356.13
2023-02-06T12:37:50.383Z,99354.38
2023-02-06T12:40:32.324Z,99348.19
2023-02-06T12:43:05.159Z,99343.81
2023-02-06T12:45:43.148Z,99341.13
2023-02-06T12:48:19.185Z,99342.75
2023-02-06T12:50:58.041Z,99346.16
2023-02-06T12:53:32.082Z,99351.34
2023-02-06T12:56:05.738Z,99345.09
2023-02-06T12:58:50.009Z,99348.53
2023-02-06T13:01:37.011Z,99354.41
2023-02-06T13:04:08.283Z,99346.47
2023-02-06T13:06:49.307Z,99336.03
2023-02-06T13:09:25.321Z,99334.13
2023-02-06T13:11:53.871Z,99328.59
2023-02-06T13:14:26.371Z,99325.84
2023-02-06T13:16:58.689Z,99324.78
2023-02-06T13:19:52.443Z,99336.22
2023-02-06T13:22:43.412Z,99329.19
2023-02-06T13:25:51.147Z,99333.66
2023-02-06T13:28:58.346Z,99331.97
2023-02-06T13:31:33.761Z,99320.53
2023-02-06T13:34:08.091Z,99324.09
2023-02-06T13:36:52.895Z,99311.03
2023-02-06T13:39:34.672Z,99319.72
2023-02-06T13:42:37.506Z,99319.72
2023-02-06T13:45:08.185Z,99326.78
2023-02-06T13:48:38.576Z,99324.91
2023-02-06T13:51:32.836Z,99323.28
2023-02-06T13:55:03.267Z,99317.97
2023-02-06T13:57:54.374Z,99310.22
2023-02-06T14:00:26.579Z,99311.91
2023-02-06T14:02:58.646Z,99312.66
2023-02-06T14:05:35.757Z,99310.75
2023-02-06T14:08:16.824Z,99307.13
2023-02-06T14:11:29.731Z,99312.38
2023-02-06T14:14:28.433Z,99311.50
2023-02-06T14:17:09.960Z,99319.31
2023-02-06T14:19:46.659Z,99311.50
2023-02-06T14:22:35.220Z,99300.19
2023-02-06T14:25:26.952Z,99300.94
2023-02-06T14:28:12.560Z,99295.00
2023-02-06T14:30:49.211Z,99286.97
2023-02-06T14:33:47.598Z,99274.66
2023-02-06T14:36:40.394Z,99271.22
2023-02-06T14:39:41.064Z,99268.66
2023-02-06T14:42:17.750Z,99272.31
2023-02-06T14:44:53.088Z,99282.84
2023-02-06T14:47:27.926Z,99290.72
2023-02-06T14:49:58.026Z,99282.00
2023-02-06T14:52:33.173Z,99287.31
2023-02-06T14:55:01.823Z,99291.72
2023-02-06T14:57:32.583Z,99296.97
2023-02-06T15:00:08.970Z,99296.09
2023-02-06T15:02:38.697Z,99302.28
2023-02-06T15:05:07.962Z,99302.41
2023-02-06T15:07:39.610Z,99298.09
2023-02-06T15:10:12.105Z,99288.56
2023-02-06T15:12:40.827Z,99298.25
2023-02-06T15:15:22.525Z,99294.88
2023-02-06T15:17:59.545Z,99299.34
2023-02-06T15:20:38.106Z,99300.34
2023-02-06T15:23:17.622Z,99303.03
2023-02-06T15:26:05.163Z,99305.81
2023-02-06T15:28:36.225Z,99310.19
2023-02-06T15:31:17.112Z,99310.31
2023-02-06T15:33:49.053Z,99314.00
2023-02-06T15:36:24.263Z,99314.94
2023-02-06T15:38:53.327Z,99319.31
2023-02-06T15:41:22.164Z,99321.94
2023-02-06T15:43:52.155Z,99327.34
2023-02-06T15:46:22.047Z,99329.97
2023-02-06T15:48:57.382Z,99325.91
2023-02-06T15:51:28.303Z,99326.75
2023-02-06T15:54:09.643Z,99337.47
2023-02-06T15:56:42.570Z,99338.50
2023-02-06T15:59:20.483Z,99340.34
2023-02-06T16:01:50.976Z,99341.31
2023-02-06T16:04:24.225Z,99339.75
2023-02-06T16:07:05.616Z,99337.31
2023-02-06T16:09:44.011Z,99331.19
2023-02-06T16:12:12.556Z,99336.56
2023-02-06T16:14:54.591Z,99348.81
2023-02-06T16:17:29.418Z,99340.94
2023-02-06T16:20:02.353Z,99334.03
2023-02-06T16:22:33.944Z,99334.81
2023-02-06T16:25:22.579Z,99338.44
2023-02-06T16:27:52.276Z,99339.25
2023-02-06T16:30:29.370Z,99355.06
2023-02-06T16:33:01.868Z,99366.47
2023-02-06T16:35:30.430Z,99371.78
2023-02-06T16:37:58.801Z,99377.09
2023-02-06T16:40:27.343Z,99372.84
2023-02-06T16:42:56.252Z,99380.78
2023-02-06T16:45:27.845Z,99397.50
2023-02-06T16:47:58.410Z,99395.06
2023-02-06T16:50:26.849Z,99409.13
2023-02-06T16:52:59.309Z,99413.84
2023-02-06T16:55:28.909Z,99413.97
2023-02-06T16:58:01.132Z,99417.53
2023-02-06T17:00:32.601Z,99420.34
2023-02-06T17:03:02.405Z,99420.47
2023-02-06T17:05:31.641Z,99420.53
2023-02-06T17:08:01.714Z,99422.38
2023-02-06T17:10:30.152Z,99418.94
2023-02-06T17:12:58.784Z,99416.34
2023-02-06T17:15:27.336Z,99419.06
2023-02-06T17:17:55.792Z,99428.63
2023-02-06T17:20:31.841Z,99421.63
2023-02-06T17:23:00.604Z,99426.94
2023-02-06T17:25:29.371Z,99419.00
2023-02-06T17:27:57.905Z,99409.38
2023-02-06T17:30:27.307Z,99421.63
2023-02-06T17:32:56.336Z,99440.97
2023-02-06T17:35:26.502Z,99434.91
2023-02-06T17:37:55.080Z,99440.16
2023-02-06T17:40:27.102Z,99439.34
2023-02-06T17:42:56.165Z,99438.47
2023-02-06T17:45:24.672Z,99450.69
2023-02-06T17:47:53.490Z,99447.28
2023-02-06T17:50:24.103Z,99456.13
2023-02-06T17:52:55.759Z,99451.00
2023-02-06T17:55:25.220Z,99456.34
2023-02-06T17:57:53.991Z,99453.84
2023-02-06T18:00:25.174Z,99451.38
2023-02-06T18:02:55.138Z,99456.69
2023-02-06T18:05:24.723Z,99463.72
2023-02-06T18:07:54.601Z,99461.22
2023-02-06T18:10:26.336Z,99450.84
2023-02-06T18:12:54.917Z,99450.97
2023-02-06T18:15:23.357Z,99455.41
2023-02-06T18:17:51.670Z,99455.63
2023-02-06T18:20:20.157Z,99448.81
2023-02-06T18:22:48.398Z,99448.91
2023-02-06T18:25:18.048Z,99451.66
2023-02-06T18:27:46.603Z,99457.91
2023-02-06T18:30:17.213Z,99454.53
2023-02-06T18:32:46.085Z,99444.19
2023-02-06T18:35:16.416Z,99449.53
2023-02-06T18:37:44.803Z,99450.50
2023-02-06T18:40:13.745Z,99453.34
2023-02-06T18:42:55.510Z,99449.91
2023-02-06T18:45:25.952Z,99462.22
2023-02-06T18:47:55.552Z,99454.53
2023-02-06T18:50:24.114Z,99466.84
2023-02-06T18:52:52.588Z,99464.28
2023-02-06T18:55:21.448Z,99467.94
2023-02-06T18:57:51.618Z,99455.88
2023-02-06T19:00:23.817Z,99448.19
2023-02-06T19:02:52.295Z,99450.97
2023-02-06T19:05:21.896Z,99457.16
2023-02-06T19:07:51.539Z,99472.03
2023-02-06T19:10:21.928Z,99475.59
2023-02-06T19:12:51.709Z,99477.38
2023-02-06T19:15:20.513Z,99487.91
2023-02-06T19:17:49.543Z,99479.25
2023-02-06T19:20:18.017Z,99484.53
2023-02-06T19:22:46.364Z,99479.38
2023-02-06T19:25:14.894Z,99483.72
2023-02-06T19:27:43.760Z,99476.81
2023-02-06T19:30:14.615Z,99472.56
2023-02-06T19:32:43.480Z,99481.38
2023-02-06T19:35:13.043Z,99482.38
2023-02-06T19:37:41.691Z,99482.47
2023-02-06T19:40:11.264Z,99490.44
2023-02-06T19:42:41.241Z,99496.59
2023-02-06T19:45:09.860Z,99485.38
2023-02-06T19:47:39.936Z,99484.56
2023-02-06T19:50:09.258Z,99486.44
2023-02-06T19:52:37.537Z,99493.47
2023-02-06T19:55:06.453Z,99503.16
2023-02-06T19:57:34.816Z,99510.22
2023-02-06T20:00:04.620Z,99520.78
2023-02-06T20:02:32.893Z,99526.09
2023-02-06T20:05:02.907Z,99530.59
2023-02-06T20:07:31.921Z,99529.88
2023-02-06T20:10:00.277Z,99523.06
2023-02-06T20:12:29.198Z,99516.28
2023-02-06T20:14:57.656Z,99523.31
2023-02-06T20:17:26.966Z,99521.69
2023-02-06T20:19:55.411Z,99541.78
2023-02-06T20:22:25.067Z,99547.09
2023-02-06T20:24:53.454Z,99532.31
2023-02-06T20:27:21.783Z,99535.84
2023-02-06T20:29:50.153Z,99546.38
2023-02-06T20:32:19.503Z,99539.44
2023-02-06T20:34:48.477Z,99534.28
2023-02-06T20:37:17.709Z,99512.59
2023-02-06T20:39:47.460Z,99514.38
2023-02-06T20:42:16.168Z,99510.13
2023-02-06T20:44:44.512Z,99517.13
2023-02-06T20:47:12.872Z,99517.22
2023-02-06T20:49:41.982Z,99525.09
2023-02-06T20:52:10.346Z,99522.63
2023-02-06T20:54:38.808Z,99520.97
2023-02-06T20:57:08.614Z,99511.53
2023-02-06T20:59:37.085Z,99519.44
2023-02-06T21:02:05.581Z,99514.34
2023-02-06T21:04:34.551Z,99529.25
2023-02-06T21:07:03.135Z,99531.91
2023-02-06T21:09:31.596Z,99535.53
2023-02-06T21:12:00.117Z,99524.25
2023-02-06T21:14:30.522Z,99521.72
2023-02-06T21:16:58.935Z,99520.03
2023-02-06T21:19:29.215Z,99514.88
2023-02-06T21:21:57.741Z,99512.31
2023-02-06T21:24:26.087Z,99494.16
2023-02-06T21:26:54.792Z,99495.09
2023-02-06T21:29:23.953Z,99496.03
2023-02-06T21:32:07.199Z,99506.56
2023-02-06T21:34:40.836Z,99499.66
2023-02-06T21:37:09.916Z,99502.38
2023-02-06T21:39:40.524Z,99519.75
2023-02-06T21:42:09.220Z,99525.97
2023-02-06T21:44:38.927Z,99525.09
2023-02-06T21:47:09.987Z,99506.88
2023-02-06T21:49:38.455Z,99514.75
2023-02-06T21:52:06.723Z,99515.69
2023-02-06T21:54:34.990Z,99525.28
2023-02-06T21:57:03.305Z,99531.47
2023-02-06T21:59:33.920Z,99539.38
2023-02-06T22:02:02.328Z,99533.34
2023-02-06T22:04:32.071Z,99542.13
2023-02-06T22:07:00.306Z,99542.19
2023-02-06T22:09:28.574Z,99554.41
2023-02-06T22:11:56.962Z,99549.28
2023-02-06T22:14:25.549Z,99544.16
2023-02-06T22:16:53.882Z,99538.19
2023-02-06T22:19:22.198Z,99558.19
2023-02-06T22:21:51.870Z,99558.25
2023-02-06T22:24:20.599Z,99567.03
2023-02-06T22:26:48.870Z,99573.19
2023-02-06T22:29:18.948Z,99576.72
2023-02-06T22:31:48.450Z,99586.31
2023-02-06T22:34:19.224Z,99589.84
2023-02-06T22:36:48.193Z,99587.28
2023-02-06T22:39:18.908Z,99593.47
2023-02-06T22:41:47.794Z,99603.06
2023-02-06T22:44:17.293Z,99609.22
2023-02-06T22:46:49.853Z,99617.06
2023-02-06T22:49:19.250Z,99607.56
2023-02-06T22:51:47.645Z,99604.19
2023-02-06T22:54:17.343Z,99605.94
2023-02-06T22:56:45.801Z,99609.47
2023-02-06T22:59:17.902Z,99617.31
2023-02-06T23:01:48.478Z,99622.59
2023-02-06T23:04:18.596Z,99619.19
2023-02-06T23:06:48.418Z,99627.88
2023-02-06T23:09:20.753Z,99627.91
2023-02-06T23:11:49.607Z,99631.41
2023-02-06T23:14:19.253Z,99645.31
2023-02-06T23:16:48.424Z,99654.06
2023-02-06T23:19:18.486Z,99657.56
2023-02-06T23:21:49.598Z,99659.31
2023-02-06T23:24:20.576Z,99660.22
2023-02-06T23:26:51.338Z,99651.53
2023-02-06T23:29:21.032Z,99658.53
2023-02-06T23:31:50.153Z,99656.88
2023-02-06T23:34:19.882Z,99659.50
2023-02-06T23:36:48.853Z,99656.13
2023-02-06T23:39:18.543Z,99649.22
2023-02-06T23:41:46.824Z,99644.03
2023-02-06T23:44:15.292Z,99628.44
2023-02-06T23:46:43.585Z,99625.88
2023-02-06T23:49:12.156Z,99625.91
2023-02-06T23:51:40.485Z,99629.41
2023-02-06T23:54:10.422Z,99638.16
2023-02-06T23:56:40.187Z,99637.34
2023-02-06T23:59:08.607Z,99630.44
